createdAt,value
2024-04-16T00:00:52.395Z,46.50
2024-04-16T00:03:22.884Z,46.30
2024-04-16T00:05:50.837Z,46.30
2024-04-16T00:08:21.217Z,46.40
2024-04-16T00:10:49.028Z,46.40
2024-04-16T00:13:19.409Z,46.40
2024-04-16T00:16:10.027Z,46.30
2024-04-16T00:18:41.029Z,46.30
2024-04-16T00:21:09.255Z,46.20
2024-04-16T00:23:39.810Z,46.20
2024-04-16T00:26:07.765Z,46.10
2024-04-16T00:28:38.199Z,46.10
2024-04-16T00:31:08.834Z,46.20
2024-04-16T00:33:39.446Z,46.20
2024-04-16T00:36:07.610Z,46.20
2024-04-16T00:38:38.100Z,46.20
2024-04-16T00:41:06.141Z,46.20
2024-04-16T00:43:36.560Z,46.10
2024-04-16T00:46:10.055Z,46.60
2024-04-16T00:48:40.607Z,46.20
2024-04-16T00:51:08.765Z,46.10
2024-04-16T00:53:40.370Z,46.10
2024-04-16T00:56:10.066Z,46.00
2024-04-16T00:58:43.452Z,45.90
2024-04-16T01:01:14.195Z,45.90
2024-04-16T01:03:45.523Z,45.80
2024-04-16T01:06:14.017Z,45.80
2024-04-16T01:08:44.522Z,45.70
2024-04-16T01:11:22.605Z,45.60
2024-04-16T01:13:53.120Z,45.60
2024-04-16T01:16:24.056Z,45.60
2024-04-16T01:18:54.559Z,45.60
2024-04-16T01:21:22.466Z,45.60
2024-04-16T01:23:55.539Z,45.60
2024-04-16T01:26:23.394Z,45.60
2024-04-16T01:28:53.866Z,45.50
2024-04-16T01:31:24.208Z,45.60
2024-04-16T01:33:54.858Z,45.40
2024-04-16T01:36:22.684Z,45.40
2024-04-16T01:38:55.718Z,45.40
2024-04-16T01:41:23.576Z,45.30
2024-04-16T01:43:54.118Z,45.30
2024-04-16T01:46:22.225Z,45.30
2024-04-16T01:48:53.451Z,45.30
2024-04-16T01:51:22.468Z,45.60
2024-04-16T01:53:55.422Z,45.30
2024-04-16T01:56:23.186Z,45.30
2024-04-16T01:58:53.656Z,45.20
2024-04-16T02:01:21.576Z,45.20
2024-04-16T02:03:51.973Z,45.00
2024-04-16T02:06:19.822Z,45.00
2024-04-16T02:08:50.188Z,45.00
2024-04-16T02:11:20.683Z,45.00
2024-04-16T02:13:51.124Z,45.00
2024-04-16T02:16:18.924Z,44.90
2024-04-16T02:18:49.481Z,44.90
2024-04-16T02:21:17.360Z,44.90
2024-04-16T02:23:48.668Z,44.90
2024-04-16T02:26:16.681Z,44.90
2024-04-16T02:28:49.764Z,44.80
2024-04-16T02:31:17.891Z,44.80
2024-04-16T02:33:48.310Z,44.70
2024-04-16T02:36:16.226Z,44.70
2024-04-16T02:38:46.596Z,44.60
2024-04-16T02:41:14.926Z,44.70
2024-04-16T02:44:39.768Z,44.70
2024-04-16T02:47:12.941Z,44.70
2024-04-16T02:49:40.718Z,45.30
2024-04-16T02:52:11.151Z,44.70
2024-04-16T02:54:38.947Z,44.70
2024-04-16T02:57:09.395Z,44.70
2024-04-16T02:59:37.117Z,44.70
2024-04-16T03:02:13.422Z,44.70
2024-04-16T03:04:41.317Z,44.70
2024-04-16T03:07:11.783Z,44.60
2024-04-16T03:09:39.593Z,44.70
2024-04-16T03:12:10.877Z,44.60
2024-04-16T03:14:38.552Z,44.70
2024-04-16T03:17:09.414Z,44.70
2024-04-16T03:19:39.866Z,44.70
2024-04-16T03:22:10.828Z,44.80
2024-04-16T03:24:38.906Z,44.90
2024-04-16T03:27:09.470Z,45.00
2024-04-16T03:29:37.259Z,45.10
2024-04-16T03:32:08.189Z,45.80
2024-04-16T03:34:38.898Z,45.30
2024-04-16T03:37:09.559Z,45.30
2024-04-16T03:39:39.994Z,45.20
2024-04-16T03:42:10.524Z,45.20
2024-04-16T03:44:38.244Z,45.30
2024-04-16T03:47:08.954Z,45.60
2024-04-16T03:49:39.582Z,45.30
2024-04-16T03:52:10.393Z,45.30
2024-04-16T03:54:38.160Z,45.20
2024-04-16T03:57:08.647Z,45.30
2024-04-16T03:59:59.671Z,45.30
2024-04-16T04:02:30.300Z,45.40
2024-04-16T04:05:03.517Z,45.30
2024-04-16T04:07:31.358Z,45.40
2024-04-16T04:10:02.005Z,45.50
2024-04-16T04:12:32.590Z,45.50
2024-04-16T04:15:00.454Z,45.60
2024-04-16T04:17:30.993Z,45.60
2024-04-16T04:20:02.528Z,45.60
2024-04-16T04:22:33.060Z,45.60
2024-04-16T04:25:02.012Z,45.60
2024-04-16T04:27:33.199Z,45.70
2024-04-16T04:30:01.103Z,45.70
2024-04-16T04:32:31.834Z,46.40
2024-04-16T04:35:02.748Z,45.80
2024-04-16T04:37:33.420Z,45.90
2024-04-16T04:40:01.388Z,46.00
2024-04-16T04:42:32.062Z,46.00
2024-04-16T04:45:00.322Z,46.00
2024-04-16T04:47:31.234Z,46.00
2024-04-16T04:50:01.859Z,46.00
2024-04-16T04:52:32.353Z,46.10
2024-04-16T04:55:03.398Z,46.10
2024-04-16T04:57:33.951Z,46.10
2024-04-16T05:00:02.177Z,46.10
2024-04-16T05:02:33.428Z,46.20
2024-04-16T05:05:05.048Z,46.00
2024-04-16T05:07:36.086Z,46.00
2024-04-16T05:10:05.019Z,45.90
2024-04-16T05:12:35.543Z,45.90
2024-04-16T05:15:05.468Z,45.90
2024-04-16T05:17:36.175Z,45.80
2024-04-16T05:20:07.721Z,45.80
2024-04-16T05:22:38.606Z,45.70
2024-04-16T05:25:07.143Z,45.70
2024-04-16T05:27:40.596Z,45.70
2024-04-16T05:30:09.805Z,45.70
2024-04-16T05:32:40.447Z,45.60
2024-04-16T05:35:11.187Z,45.70
2024-04-16T05:37:41.871Z,45.60
2024-04-16T05:40:10.456Z,45.60
2024-04-16T05:42:42.494Z,45.60
2024-04-16T05:45:10.829Z,45.70
2024-04-16T05:47:42.485Z,45.50
2024-04-16T05:50:13.076Z,45.40
2024-04-16T05:52:43.799Z,45.40
2024-04-16T05:55:12.091Z,45.30
2024-04-16T05:57:42.681Z,45.30
2024-04-16T06:00:11.244Z,45.30
2024-04-16T06:02:42.034Z,45.30
2024-04-16T06:05:12.641Z,45.20
2024-04-16T06:07:43.306Z,45.20
2024-04-16T06:10:11.266Z,45.10
2024-04-16T06:12:41.827Z,45.10
2024-04-16T06:15:11.023Z,45.10
2024-04-16T06:17:41.793Z,45.00
2024-04-16T06:20:12.538Z,45.00
2024-04-16T06:22:43.620Z,45.00
2024-04-16T06:25:14.264Z,45.00
2024-04-16T06:27:42.124Z,45.00
2024-04-16T06:30:13.534Z,45.00
2024-04-16T06:32:41.537Z,44.90
2024-04-16T06:35:14.727Z,45.00
2024-04-16T06:37:42.681Z,44.90
2024-04-16T06:40:13.509Z,45.00
2024-04-16T06:42:41.448Z,45.00
2024-04-16T06:45:11.917Z,44.90
2024-04-16T06:47:39.872Z,44.70
2024-04-16T06:50:11.137Z,44.70
2024-04-16T06:52:41.894Z,44.70
2024-04-16T06:55:12.686Z,44.60
2024-04-16T06:57:40.529Z,44.40
2024-04-16T07:00:12.900Z,44.00
2024-04-16T07:02:40.760Z,44.00
2024-04-16T07:05:11.443Z,44.20
2024-04-16T07:07:42.234Z,44.20
2024-04-16T07:10:12.886Z,44.00
2024-04-16T07:12:40.942Z,43.90
2024-04-16T07:15:11.998Z,43.90
2024-04-16T07:17:39.946Z,43.70
2024-04-16T07:20:11.532Z,43.70
2024-04-16T07:22:42.165Z,43.70
2024-04-16T07:25:12.711Z,43.70
2024-04-16T07:27:40.575Z,43.70
2024-04-16T07:30:11.888Z,43.80
2024-04-16T07:32:40.216Z,43.70
2024-04-16T07:35:11.219Z,43.70
2024-04-16T07:37:41.722Z,43.80
2024-04-16T07:40:12.971Z,43.50
2024-04-16T07:42:41.735Z,43.60
2024-04-16T07:45:12.638Z,43.60
2024-04-16T07:47:40.705Z,43.50
2024-04-16T07:50:11.520Z,43.50
2024-04-16T07:52:42.724Z,43.50
2024-04-16T07:55:13.256Z,43.80
2024-04-16T07:57:41.096Z,43.90
2024-04-16T08:00:13.183Z,43.50
2024-04-16T08:02:43.916Z,44.10
2024-04-16T08:05:11.934Z,43.30
2024-04-16T08:07:47.011Z,42.70
2024-04-16T08:10:14.961Z,42.50
2024-04-16T08:12:45.686Z,41.30
2024-04-16T08:15:13.654Z,40.70
2024-04-16T08:17:44.088Z,39.60
2024-04-16T08:20:13.650Z,37.60
2024-04-16T08:22:47.757Z,37.70
2024-04-16T08:25:15.730Z,36.70
2024-04-16T08:27:46.716Z,36.80
2024-04-16T08:30:14.522Z,37.20
2024-04-16T08:32:48.302Z,37.30
2024-04-16T08:35:25.800Z,38.60
2024-04-16T08:37:59.252Z,38.20
2024-04-16T08:40:27.212Z,38.50
2024-04-16T08:42:57.744Z,38.90
2024-04-16T08:45:26.236Z,40.00
2024-04-16T08:47:59.082Z,40.20
2024-04-16T08:50:29.607Z,40.00
2024-04-16T08:53:08.234Z,39.10
2024-04-16T08:55:38.771Z,38.20
2024-04-16T08:58:09.348Z,37.90
2024-04-16T09:00:37.285Z,37.90
2024-04-16T09:03:08.790Z,38.30
2024-04-16T09:05:36.788Z,38.70
2024-04-16T09:08:10.878Z,39.00
2024-04-16T09:10:38.928Z,39.40
2024-04-16T09:13:15.627Z,39.90
2024-04-16T09:15:43.936Z,40.40
2024-04-16T09:18:15.274Z,40.30
2024-04-16T09:20:49.906Z,40.10
2024-04-16T09:23:20.665Z,40.10
2024-04-16T09:25:52.905Z,39.80
2024-04-16T09:28:21.354Z,39.70
2024-04-16T09:30:58.773Z,39.80
2024-04-16T09:33:37.293Z,39.70
2024-04-16T09:36:16.950Z,39.70
2024-04-16T09:38:48.303Z,40.00
2024-04-16T09:41:19.324Z,40.00
2024-04-16T09:43:49.098Z,40.10
2024-04-16T09:46:21.671Z,40.30
2024-04-16T09:48:49.938Z,40.70
2024-04-16T09:51:24.830Z,41.00
2024-04-16T09:53:57.294Z,41.00
2024-04-16T09:56:30.065Z,40.50
2024-04-16T09:59:00.140Z,40.30
2024-04-16T10:01:33.013Z,40.00
2024-04-16T10:04:04.605Z,39.90
2024-04-16T10:06:32.619Z,40.00
2024-04-16T10:09:06.146Z,40.10
2024-04-16T10:11:36.870Z,40.00
2024-04-16T10:14:09.121Z,39.60
2024-04-16T10:16:37.384Z,39.20
2024-04-16T10:19:09.826Z,38.70
2024-04-16T10:21:41.644Z,38.50
2024-04-16T10:24:23.006Z,38.60
2024-04-16T10:26:58.185Z,38.90
2024-04-16T10:29:34.316Z,39.50
2024-04-16T10:32:04.706Z,38.50
2024-04-16T10:34:36.425Z,38.20
2024-04-16T10:37:04.759Z,38.20
2024-04-16T10:39:38.216Z,38.10
2024-04-16T10:42:06.505Z,38.60
2024-04-16T10:44:39.179Z,38.00
2024-04-16T10:47:07.801Z,37.60
2024-04-16T10:49:39.366Z,37.30
2024-04-16T10:52:13.303Z,37.10
2024-04-16T10:54:49.423Z,37.20
2024-04-16T10:57:18.335Z,37.20
2024-04-16T10:59:58.091Z,37.50
2024-04-16T11:02:34.285Z,37.70
2024-04-16T11:05:05.138Z,37.90
2024-04-16T11:07:35.175Z,37.90
2024-04-16T11:10:10.338Z,38.10
2024-04-16T11:12:39.410Z,38.10
2024-04-16T11:15:11.114Z,38.20
2024-04-16T11:17:40.385Z,38.00
2024-04-16T11:20:12.675Z,37.80
2024-04-16T11:22:41.600Z,37.70
2024-04-16T11:25:23.912Z,37.40
2024-04-16T11:27:51.949Z,37.40
2024-04-16T11:30:23.275Z,37.30
2024-04-16T11:32:51.250Z,37.60
2024-04-16T11:35:22.301Z,37.60
2024-04-16T11:37:50.336Z,37.50
2024-04-16T11:40:24.676Z,37.50
2024-04-16T11:42:52.698Z,37.40
2024-04-16T11:45:23.966Z,36.90
2024-04-16T11:47:51.942Z,36.90
2024-04-16T11:50:23.517Z,36.70
2024-04-16T11:52:51.531Z,36.60
2024-04-16T11:55:25.107Z,37.20
2024-04-16T11:57:53.049Z,36.30
2024-04-16T12:00:23.763Z,36.50
2024-04-16T12:02:51.672Z,36.10
2024-04-16T12:05:22.574Z,36.00
2024-04-16T12:07:51.084Z,36.00
2024-04-16T12:10:25.433Z,36.10
2024-04-16T12:12:53.399Z,36.20
2024-04-16T12:15:24.265Z,36.50
2024-04-16T12:17:52.400Z,36.70
2024-04-16T12:20:22.985Z,37.10
2024-04-16T12:22:51.297Z,36.50
2024-04-16T12:25:24.748Z,36.50
2024-04-16T12:27:52.628Z,36.50
2024-04-16T12:30:23.080Z,36.60
2024-04-16T12:33:01.058Z,36.40
2024-04-16T12:35:37.388Z,36.20
2024-04-16T12:38:06.354Z,36.10
2024-04-16T12:40:39.588Z,35.90
2024-04-16T12:43:07.905Z,35.50
2024-04-16T12:45:38.670Z,35.90
2024-04-16T12:48:08.280Z,35.70
2024-04-16T12:50:44.981Z,36.00
2024-04-16T12:53:12.904Z,35.80
2024-04-16T12:55:47.449Z,35.80
2024-04-16T12:58:15.752Z,35.30
2024-04-16T13:00:46.598Z,35.20
2024-04-16T13:03:14.627Z,35.30
2024-04-16T13:05:45.122Z,35.40
2024-04-16T13:08:16.130Z,35.70
2024-04-16T13:10:54.413Z,35.70
2024-04-16T13:13:22.427Z,35.90
2024-04-16T13:15:53.462Z,36.00
2024-04-16T13:18:21.596Z,35.80
2024-04-16T13:20:59.176Z,35.80
2024-04-16T13:23:27.207Z,35.70
2024-04-16T13:26:01.306Z,35.60
2024-04-16T13:28:30.618Z,35.30
2024-04-16T13:31:04.230Z,35.30
2024-04-16T13:33:32.302Z,35.30
2024-04-16T13:36:02.958Z,35.30
2024-04-16T13:38:30.795Z,35.30
2024-04-16T13:41:06.811Z,35.20
2024-04-16T13:43:35.708Z,35.00
2024-04-16T13:46:07.491Z,35.30
2024-04-16T13:48:35.669Z,35.00
2024-04-16T13:51:07.748Z,34.70
2024-04-16T13:53:36.220Z,34.80
2024-04-16T13:56:10.223Z,34.90
2024-04-16T13:58:38.693Z,34.90
2024-04-16T14:01:09.366Z,34.80
2024-04-16T14:03:37.477Z,34.70
2024-04-16T14:06:08.901Z,34.80
2024-04-16T14:08:36.814Z,34.90
2024-04-16T14:11:10.326Z,34.90
2024-04-16T14:13:41.176Z,34.90
2024-04-16T14:16:11.123Z,34.80
2024-04-16T14:18:41.949Z,34.70
2024-04-16T14:21:10.015Z,34.70
2024-04-16T14:23:40.655Z,34.90
2024-04-16T14:26:11.777Z,34.90
2024-04-16T14:28:44.928Z,34.90
2024-04-16T14:31:15.906Z,34.70
2024-04-16T14:33:47.093Z,34.70
2024-04-16T14:36:18.214Z,34.90
2024-04-16T14:38:48.919Z,34.90
2024-04-16T14:41:20.559Z,34.80
2024-04-16T14:43:51.626Z,34.80
2024-04-16T14:46:20.217Z,34.80
2024-04-16T14:48:51.553Z,35.00
2024-04-16T14:51:20.207Z,35.00
2024-04-16T14:53:50.738Z,35.00
2024-04-16T14:56:23.134Z,35.10
2024-04-16T14:58:53.885Z,35.30
2024-04-16T15:01:21.977Z,35.30
2024-04-16T15:03:53.788Z,35.60
2024-04-16T15:06:22.704Z,35.30
2024-04-16T15:08:53.706Z,35.40
2024-04-16T15:11:24.568Z,35.50
2024-04-16T15:13:56.029Z,35.40
2024-04-16T15:16:24.229Z,35.50
2024-04-16T15:18:54.913Z,35.50
2024-04-16T15:21:22.959Z,35.50
2024-04-16T15:23:53.534Z,35.60
2024-04-16T15:26:24.178Z,35.70
2024-04-16T15:28:54.913Z,35.70
2024-04-16T15:31:23.091Z,35.70
2024-04-16T15:33:53.886Z,36.10
2024-04-16T15:36:23.884Z,35.60
2024-04-16T15:38:56.423Z,35.60
2024-04-16T15:41:28.393Z,35.60
2024-04-16T15:44:00.003Z,35.70
2024-04-16T15:46:28.831Z,35.60
2024-04-16T15:49:00.893Z,35.60
2024-04-16T15:51:29.289Z,35.70
2024-04-16T15:53:59.988Z,35.70
2024-04-16T15:56:31.513Z,35.70
2024-04-16T15:59:02.526Z,35.60
2024-04-16T16:01:32.986Z,35.60
2024-04-16T16:04:13.838Z,35.60
2024-04-16T16:06:42.156Z,35.60
2024-04-16T16:09:16.041Z,35.60
2024-04-16T16:11:46.944Z,35.60
2024-04-16T16:14:18.123Z,35.60
2024-04-16T16:16:46.183Z,35.60
2024-04-16T16:19:17.168Z,35.50
2024-04-16T16:21:45.207Z,35.60
2024-04-16T16:24:17.407Z,35.60
2024-04-16T16:26:48.537Z,35.70
2024-04-16T16:29:19.563Z,35.70
2024-04-16T16:31:47.630Z,35.60
2024-04-16T16:34:18.302Z,35.60
2024-04-16T16:36:46.332Z,35.70
2024-04-16T16:39:16.898Z,35.70
2024-04-16T16:41:50.383Z,35.70
2024-04-16T16:44:18.452Z,35.70
2024-04-16T16:46:49.536Z,35.70
2024-04-16T16:49:17.425Z,35.60
2024-04-16T16:51:48.290Z,35.70
2024-04-16T16:54:16.546Z,35.70
2024-04-16T16:56:47.290Z,35.70
2024-04-16T16:59:18.027Z,35.70
2024-04-16T17:01:48.632Z,35.80
2024-04-16T17:04:16.832Z,35.70
2024-04-16T17:06:50.880Z,35.70
2024-04-16T17:09:19.585Z,35.80
2024-04-16T17:11:50.563Z,35.80
2024-04-16T17:14:23.170Z,35.80
2024-04-16T17:16:53.994Z,35.80
2024-04-16T17:19:22.038Z,35.90
2024-04-16T17:21:52.975Z,35.90
2024-04-16T17:24:23.760Z,35.90
2024-04-16T17:26:51.868Z,35.80
2024-04-16T17:29:25.581Z,35.70
2024-04-16T17:31:53.740Z,35.70
2024-04-16T17:34:24.960Z,35.70
2024-04-16T17:36:53.352Z,35.70
2024-04-16T17:39:24.507Z,35.70
2024-04-16T17:41:52.592Z,35.70
2024-04-16T17:44:25.883Z,35.70
2024-04-16T17:46:55.223Z,36.20
2024-04-16T17:49:28.769Z,35.80
2024-04-16T17:51:57.195Z,35.80
2024-04-16T17:54:28.687Z,35.80
2024-04-16T17:56:57.829Z,36.50
2024-04-16T17:59:32.089Z,35.90
2024-04-16T18:02:01.898Z,35.80
2024-04-16T18:04:33.959Z,35.90
2024-04-16T18:07:04.805Z,35.90
2024-04-16T18:09:39.404Z,35.90
2024-04-16T18:12:09.791Z,36.00
2024-04-16T18:14:43.653Z,35.90
2024-04-16T18:17:13.551Z,36.00
2024-04-16T18:19:45.406Z,35.90
2024-04-16T18:22:16.003Z,35.90
2024-04-16T18:24:47.533Z,35.90
2024-04-16T18:27:16.511Z,35.90
2024-04-16T18:29:50.828Z,35.90
2024-04-16T18:32:19.927Z,36.00
2024-04-16T18:34:51.342Z,36.00
2024-04-16T18:37:21.728Z,36.00
2024-04-16T18:39:53.555Z,36.00
2024-04-16T18:42:25.232Z,36.00
2024-04-16T18:44:57.895Z,36.00
2024-04-16T18:47:29.116Z,36.40
2024-04-16T18:49:57.382Z,36.40
2024-04-16T18:52:29.726Z,36.50
2024-04-16T18:54:59.016Z,36.30
2024-04-16T18:57:31.490Z,36.00
2024-04-16T19:24:18.545Z,36.50
2024-04-16T19:26:48.885Z,35.80
2024-04-16T19:29:22.092Z,35.80
2024-04-16T19:31:50.991Z,35.80
2024-04-16T19:34:26.131Z,35.80
2024-04-16T19:36:55.806Z,36.10
2024-04-16T19:39:33.133Z,35.70
2024-04-16T19:42:03.217Z,35.80
2024-04-16T19:44:37.552Z,35.80
2024-04-16T19:47:09.179Z,35.80
2024-04-16T19:49:42.604Z,36.50
2024-04-16T19:52:14.988Z,35.80
2024-04-16T19:54:50.775Z,35.80
2024-04-16T19:57:20.167Z,35.80
2024-04-16T19:59:55.952Z,35.90
2024-04-16T20:02:27.418Z,35.90
2024-04-16T20:05:00.275Z,35.90
2024-04-16T20:07:30.238Z,35.80
2024-04-16T20:10:05.720Z,35.80
2024-04-16T20:12:33.896Z,35.80
2024-04-16T20:15:06.568Z,35.80
2024-04-16T20:17:35.298Z,35.80
2024-04-16T20:20:07.070Z,35.90
2024-04-16T20:22:37.431Z,35.90
2024-04-16T20:25:15.534Z,35.90
2024-04-16T20:27:44.968Z,35.80
2024-04-16T20:30:24.954Z,35.80
2024-04-16T20:32:53.368Z,35.80
2024-04-16T20:35:24.712Z,35.80
2024-04-16T20:37:52.991Z,35.80
2024-04-16T20:40:27.358Z,35.80
2024-04-16T20:42:56.365Z,35.80
2024-04-16T20:45:29.609Z,35.80
2024-04-16T20:47:59.346Z,35.70
2024-04-16T20:50:30.243Z,35.70
2024-04-16T20:52:58.539Z,35.80
2024-04-16T20:55:32.019Z,35.80
2024-04-16T20:58:00.058Z,35.80
2024-04-16T21:00:32.806Z,35.90
2024-04-16T21:03:07.298Z,35.90
2024-04-16T21:05:40.923Z,35.90
2024-04-16T21:08:09.379Z,35.90
2024-04-16T21:10:42.826Z,36.00
